Time;durP1;ratioP1;P1;durP2;ratioP2;P2;SDS_P1;SDS_P2;PMS_P1;PMS_P2;Temp;Humidity;BMP_temperature;BMP_pressure;BME280_temperature;BME280_humidity;BME280_pressure;Samples;Min_cycle;Max_cycle;Signal;HPM_P1;HPM_P2
2021/07/13 00:01:58;;;;;;;3.63;2.92;;;;;;;21.65;70.60;97449.38;5088783;28;20036;-88
2021/07/13 00:04:23;;;;;;;5.57;2.58;;;;;;;21.64;70.72;97447.81;5090036;28;20012;-89
2021/07/13 00:06:49;;;;;;;4.63;2.38;;;;;;;21.60;70.93;97444.16;5089349;28;20087;-89
2021/07/13 00:09:14;;;;;;;2.80;2.45;;;;;;;21.48;71.03;97433.28;5069877;28;20400;-87
2021/07/13 00:11:40;;;;;;;2.95;2.50;;;;;;;21.64;70.63;97442.25;5088518;28;20029;-88
2021/07/13 00:14:06;;;;;;;4.95;2.90;;;;;;;21.85;69.81;97450.81;5090898;28;20039;-87
2021/07/13 00:16:32;;;;;;;3.67;2.63;;;;;;;21.75;69.88;97445.94;5074543;28;20013;-87
2021/07/13 00:18:59;;;;;;;5.22;2.40;;;;;;;21.56;70.76;97432.19;5074855;28;20082;-86
2021/07/13 00:21:24;;;;;;;3.72;2.58;;;;;;;21.62;70.87;97442.59;5075297;28;20040;-88
2021/07/13 00:23:49;;;;;;;2.80;2.30;;;;;;;21.52;70.80;97437.72;5093522;28;20068;-87
2021/07/13 00:26:15;;;;;;;6.13;2.42;;;;;;;21.54;70.72;97437.34;5085648;28;20157;-87
2021/07/13 00:28:42;;;;;;;14.23;3.60;;;;;;;21.61;70.48;97445.78;5092175;28;20004;-87
2021/07/13 00:31:08;;;;;;;4.95;2.85;;;;;;;21.70;70.67;97435.94;5095649;28;20082;-87
2021/07/13 00:33:33;;;;;;;3.00;2.20;;;;;;;21.63;69.94;97437.84;5096779;28;20020;-86
2021/07/13 00:36:01;;;;;;;2.60;2.20;;;;;;;21.70;69.73;97438.75;5094993;28;20066;-87
2021/07/13 00:38:26;;;;;;;3.50;2.60;;;;;;;21.77;69.42;97440.81;5087797;28;20017;-87
2021/07/13 00:40:52;;;;;;;2.80;2.28;;;;;;;21.78;69.46;97436.81;5073404;28;20021;-88
2021/07/13 00:43:18;;;;;;;8.95;2.47;;;;;;;21.67;69.95;97425.59;5088617;28;20032;-88
2021/07/13 00:45:43;;;;;;;3.70;2.90;;;;;;;21.66;70.26;97437.88;5070035;28;20052;-88
2021/07/13 00:48:10;;;;;;;2.60;2.40;;;;;;;21.60;70.57;97433.84;5087679;28;20032;-88
2021/07/13 00:50:36;;;;;;;4.43;3.05;;;;;;;21.49;71.05;97440.47;5072836;28;20392;-85
2021/07/13 00:53:03;;;;;;;4.63;2.25;;;;;;;21.43;71.42;97434.41;5073131;28;20032;-86
2021/07/13 00:55:29;;;;;;;13.93;3.13;;;;;;;21.38;71.60;97431.19;5089842;28;20084;-88
2021/07/13 00:57:55;;;;;;;4.10;3.00;;;;;;;21.30;72.05;97425.50;5087988;28;20032;-87
2021/07/13 01:00:21;;;;;;;3.08;2.78;;;;;;;21.43;71.27;97434.41;5089694;28;20016;-87
2021/07/13 01:02:52;;;;;;;3.20;2.50;;;;;;;21.36;71.50;97435.13;5072585;28;20058;-87
2021/07/13 01:05:21;;;;;;;2.63;2.42;;;;;;;21.55;71.02;97441.75;5072765;28;20039;-86
2021/07/13 01:07:49;;;;;;;5.05;2.80;;;;;;;21.56;71.15;97432.19;5070806;28;20050;-85
2021/07/13 01:10:33;;;;;;;2.63;2.42;;;;;;;21.43;71.66;97439.97;5088720;28;20484;-88
2021/07/13 01:13:17;;;;;;;3.13;2.38;;;;;;;21.23;72.88;97435.78;5084771;28;20119;-85
2021/07/13 01:15:50;;;;;;;4.57;2.50;;;;;;;21.20;72.64;97423.41;5085640;28;20094;-87
2021/07/13 01:18:28;;;;;;;2.78;2.55;;;;;;;21.25;73.33;97437.00;5069122;28;20059;-88
2021/07/13 01:21:06;;;;;;;3.65;2.83;;;;;;;21.31;73.01;97437.44;5084920;28;20021;-88
2021/07/13 01:23:52;;;;;;;6.55;2.55;;;;;;;21.27;72.81;97431.03;5081225;28;20126;-88
2021/07/13 01:26:35;;;;;;;3.53;2.83;;;;;;;21.47;72.81;97437.25;5095234;28;20032;-82
2021/07/13 01:29:04;;;;;;;4.68;2.80;;;;;;;21.36;72.97;97428.78;5074516;28;20489;-88
2021/07/13 01:31:31;;;;;;;6.53;2.42;;;;;;;21.37;72.84;97438.72;5058103;28;20032;-87
2021/07/13 01:34:07;;;;;;;4.10;2.63;;;;;;;21.29;73.19;97428.69;5075225;28;20009;-85
2021/07/13 01:36:38;;;;;;;2.63;2.42;;;;;;;21.40;72.43;97423.25;5056349;28;20544;-88
2021/07/13 01:39:05;;;;;;;2.53;2.33;;;;;;;21.38;72.72;97414.47;5055863;28;20052;-87
2021/07/13 01:41:31;;;;;;;6.95;2.75;;;;;;;21.40;72.69;97428.81;5073223;28;20036;-86
2021/07/13 01:43:58;;;;;;;3.65;2.78;;;;;;;21.28;72.90;97433.44;5056157;28;20035;-87
2021/07/13 01:46:24;;;;;;;4.45;3.28;;;;;;;21.05;74.26;97434.69;5074028;28;20488;-87
2021/07/13 01:48:53;;;;;;;5.05;3.30;;;;;;;20.93;75.70;97437.69;5074372;28;20034;-88
2021/07/13 01:51:20;;;;;;;5.38;3.88;;;;;;;20.74;76.88;97428.28;5073776;28;20032;-86
2021/07/13 01:53:47;;;;;;;6.50;3.60;;;;;;;20.66;77.98;97436.91;5074407;28;20039;-87
2021/07/13 01:56:13;;;;;;;9.95;3.40;;;;;;;20.37;79.63;97427.31;5059581;28;20025;-85
2021/07/13 01:58:40;;;;;;;3.58;3.28;;;;;;;20.23;81.03;97438.97;5080241;28;20027;-87
2021/07/13 02:01:09;;;;;;;6.35;3.92;;;;;;;19.96;82.95;97423.41;5061190;28;20028;-84
2021/07/13 02:03:37;;;;;;;5.82;4.55;;;;;;;19.89;84.89;97428.81;5059260;28;20031;-87
2021/07/13 02:06:04;;;;;;;7.63;4.45;;;;;;;19.97;84.00;97422.22;5077831;28;20477;-88
2021/07/13 02:08:30;;;;;;;6.03;4.80;;;;;;;19.89;85.43;97431.59;5077346;28;20016;-86
2021/07/13 02:10:56;;;;;;;5.25;4.40;;;;;;;19.94;85.44;97422.97;5077662;28;20023;-87
2021/07/13 02:13:21;;;;;;;10.10;4.43;;;;;;;19.78;85.84;97411.19;5059483;28;20032;-88
2021/07/13 02:15:47;;;;;;;5.22;4.20;;;;;;;19.94;85.65;97434.09;5059567;28;20078;-88
2021/07/13 02:18:13;;;;;;;6.43;5.65;;;;;;;20.02;84.99;97435.81;5077491;28;20021;-87
2021/07/13 02:20:39;;;;;;;12.20;5.75;;;;;;;20.32;83.59;97447.09;5059285;28;20063;-87
2021/07/13 02:23:06;;;;;;;8.30;4.47;;;;;;;20.30;83.86;97450.22;5076515;28;20056;-87
2021/07/13 02:25:32;;;;;;;8.55;4.90;;;;;;;20.18;84.34;97430.13;5076981;28;20094;-87
2021/07/13 02:28:02;;;;;;;6.07;4.30;;;;;;;20.10;85.48;97440.31;5076790;28;20032;-86
2021/07/13 02:30:30;;;;;;;5.90;3.95;;;;;;;20.23;84.59;97433.41;5076603;28;20036;-86
2021/07/13 02:33:02;;;;;;;6.00;4.35;;;;;;;20.11;85.51;97439.13;5058467;28;20123;-86
2021/07/13 02:35:41;;;;;;;5.10;3.97;;;;;;;20.02;85.72;97437.78;5058289;28;20055;-86
2021/07/13 02:38:08;;;;;;;8.02;3.78;;;;;;;20.07;85.80;97443.84;5063676;28;20017;-87
2021/07/13 02:40:34;;;;;;;5.25;4.45;;;;;;;19.97;86.13;97438.09;5019218;28;20036;-86
2021/07/13 02:43:00;;;;;;;5.18;4.13;;;;;;;19.99;86.12;97438.50;5036064;28;20037;-87
2021/07/13 02:45:27;;;;;;;10.30;4.72;;;;;;;19.80;87.07;97431.03;5018908;28;20025;-87
2021/07/13 02:47:55;;;;;;;9.13;4.53;;;;;;;20.05;85.29;97428.69;5036526;28;20025;-86
2021/07/13 02:50:21;;;;;;;7.30;4.72;;;;;;;19.94;86.00;97428.53;5018885;28;20478;-87
2021/07/13 02:52:48;;;;;;;5.90;4.78;;;;;;;19.80;86.49;97419.94;5036620;28;20120;-87
2021/07/13 02:55:17;;;;;;;8.73;5.72;;;;;;;19.72;87.53;97430.13;5036987;28;20025;-87
2021/07/13 02:57:45;;;;;;;8.50;5.32;;;;;;;19.67;87.97;97433.16;5036437;28;20049;-88
2021/07/13 03:00:13;;;;;;;10.90;5.55;;;;;;;19.41;90.21;97426.72;5036736;28;20031;-88
2021/07/13 03:02:41;;;;;;;7.35;5.13;;;;;;;19.21;91.93;97421.13;5036172;28;20076;-88
2021/07/13 03:05:11;;;;;;;6.55;5.78;;;;;;;19.35;91.61;97426.16;5036858;28;20509;-88
2021/07/13 03:07:36;;;;;;;5.53;5.00;;;;;;;19.51;90.65;97423.34;5035382;28;20026;-84
2021/07/13 03:10:03;;;;;;;6.50;4.47;;;;;;;19.61;89.66;97412.44;5018651;28;20021;-87
2021/07/13 03:12:29;;;;;;;8.40;5.15;;;;;;;19.70;88.98;97417.78;5018681;28;20021;-86
2021/07/13 03:14:56;;;;;;;5.03;4.55;;;;;;;19.61;89.78;97417.19;5036359;28;20055;-85
2021/07/13 03:17:22;;;;;;;8.32;5.03;;;;;;;19.70;88.71;97409.44;5035865;28;20052;-86
2021/07/13 03:19:48;;;;;;;7.50;5.30;;;;;;;19.50;90.61;97407.88;5035537;28;20037;-87
2021/07/13 03:22:26;;;;;;;13.25;5.05;;;;;;;19.46;90.94;97406.97;5017947;28;20035;-85
2021/07/13 03:24:52;;;;;;;12.05;5.32;;;;;;;19.36;91.22;97405.56;5021936;28;20036;-88
2021/07/13 03:27:21;;;;;;;8.43;5.10;;;;;;;19.30;91.68;97403.44;5018337;28;20112;-84
2021/07/13 03:29:48;;;;;;;6.22;4.78;;;;;;;19.35;91.63;97403.19;5046770;28;20041;-84
2021/07/13 03:32:16;;;;;;;9.15;5.10;;;;;;;19.56;90.19;97390.56;5037299;28;20036;-84
2021/07/13 03:34:45;;;;;;;8.30;5.50;;;;;;;19.64;89.03;97388.72;5055314;28;20021;-87
2021/07/13 03:37:11;;;;;;;11.75;5.90;;;;;;;19.58;89.15;97395.72;5054970;28;20028;-84
2021/07/13 03:39:37;;;;;;;7.57;5.50;;;;;;;19.63;88.97;97399.00;5054728;28;20088;-85
2021/07/13 03:42:06;;;;;;;7.70;6.03;;;;;;;19.50;89.73;97403.13;5037984;28;20029;-85
2021/07/13 03:44:31;;;;;;;6.63;5.00;;;;;;;19.42;90.06;97386.72;5025643;28;20021;-86
2021/07/13 03:46:57;;;;;;;7.88;6.45;;;;;;;19.34;90.83;97384.91;5061955;28;20428;-86
2021/07/13 03:49:24;;;;;;;10.25;6.13;;;;;;;19.58;89.66;97396.53;5055723;28;20017;-85
2021/07/13 03:51:50;;;;;;;8.85;6.65;;;;;;;19.88;87.63;97396.69;5055773;28;20033;-86
2021/07/13 03:54:17;;;;;;;5.47;4.88;;;;;;;19.70;88.26;97388.03;5055639;28;20088;-87
2021/07/13 03:56:43;;;;;;;10.52;6.40;;;;;;;19.53;88.93;97377.41;5055841;28;20028;-88
2021/07/13 03:59:09;;;;;;;7.63;5.55;;;;;;;19.70;88.73;97382.47;5055594;28;20032;-86
2021/07/13 04:01:35;;;;;;;6.18;5.47;;;;;;;19.75;87.96;97375.81;5039911;28;20063;-87
2021/07/13 04:04:01;;;;;;;9.73;5.82;;;;;;;19.80;87.60;97380.28;5058423;28;20022;-85
2021/07/13 04:06:27;;;;;;;12.93;7.55;;;;;;;19.93;87.05;97379.72;5039678;28;20021;-85
2021/07/13 04:08:54;;;;;;;12.20;7.47;;;;;;;19.74;88.02;97368.66;5058818;28;20366;-86
2021/07/13 04:11:20;;;;;;;16.27;7.88;;;;;;;19.94;87.49;97380.53;5055911;28;20031;-85
2021/07/13 04:13:45;;;;;;;14.27;7.00;;;;;;;19.92;87.19;97369.81;5037037;28;20051;-86
2021/07/13 04:16:11;;;;;;;11.50;6.55;;;;;;;19.93;87.27;97373.34;5054139;28;20048;-85
2021/07/13 04:18:37;;;;;;;9.48;7.55;;;;;;;20.14;86.18;97368.97;5053392;28;20029;-86
2021/07/13 04:21:02;;;;;;;10.88;8.73;;;;;;;20.20;85.25;97361.13;5054385;28;20021;-86
2021/07/13 04:23:28;;;;;;;10.68;8.68;;;;;;;20.40;84.64;97372.97;5054299;28;20032;-86
2021/07/13 04:25:53;;;;;;;13.65;8.23;;;;;;;20.46;84.29;97380.59;5054552;28;20013;-85
2021/07/13 04:28:19;;;;;;;13.68;7.80;;;;;;;20.77;82.09;97360.81;5036785;28;20394;-86
2021/07/13 04:30:45;;;;;;;8.88;5.47;;;;;;;20.57;83.23;97386.34;5054733;28;20041;-88
2021/07/13 04:33:10;;;;;;;9.88;5.00;;;;;;;20.93;81.34;97373.72;5054189;28;20029;-88
2021/07/13 04:35:36;;;;;;;8.23;5.88;;;;;;;20.66;82.10;97372.97;5054335;28;20044;-88
2021/07/13 04:38:01;;;;;;;8.10;6.15;;;;;;;20.52;83.28;97378.31;5054070;28;20017;-87
2021/07/13 04:40:27;;;;;;;13.52;5.35;;;;;;;20.55;82.37;97363.69;5054610;28;20024;-88
2021/07/13 04:42:52;;;;;;;14.13;6.75;;;;;;;20.68;82.41;97388.09;5054676;28;20103;-87
2021/07/13 04:45:18;;;;;;;8.60;5.55;;;;;;;20.86;81.04;97357.78;5053902;28;20025;-86
2021/07/13 04:47:43;;;;;;;9.40;5.72;;;;;;;20.88;81.24;97387.97;5055910;28;20033;-86
2021/07/13 04:50:09;;;;;;;10.35;5.40;;;;;;;21.22;79.50;97372.94;5055437;28;20057;-86
2021/07/13 04:52:35;;;;;;;9.15;5.43;;;;;;;21.28;79.36;97365.84;5038288;28;20032;-86
2021/07/13 04:55:00;;;;;;;6.20;4.68;;;;;;;21.45;78.95;97381.97;5055640;28;20020;-86
2021/07/13 04:57:27;;;;;;;8.57;4.82;;;;;;;21.48;78.11;97369.28;5037060;28;20098;-86
2021/07/13 04:59:53;;;;;;;5.88;4.70;;;;;;;21.44;78.54;97369.22;5053794;28;20040;-87
2021/07/13 05:02:19;;;;;;;6.68;4.43;;;;;;;21.48;78.25;97372.88;5054154;28;20485;-88
2021/07/13 05:04:44;;;;;;;8.23;4.55;;;;;;;21.50;77.81;97373.28;5053620;28;20036;-83
2021/07/13 05:07:09;;;;;;;10.13;4.25;;;;;;;21.85;76.69;97383.97;5051843;28;20044;-86
2021/07/13 05:09:35;;;;;;;9.38;4.45;;;;;;;22.07;75.58;97380.25;5035702;28;20028;-86
2021/07/13 05:12:00;;;;;;;8.55;4.90;;;;;;;22.17;75.08;97378.75;5053585;28;20366;-85
2021/07/13 05:14:25;;;;;;;4.75;4.05;;;;;;;22.26;74.14;97382.81;5036330;28;20032;-85
2021/07/13 05:16:51;;;;;;;5.50;4.60;;;;;;;21.86;75.71;97374.47;5054545;28;20024;-86
2021/07/13 05:19:17;;;;;;;6.50;5.82;;;;;;;21.64;77.00;97383.78;5053883;28;20074;-84
2021/07/13 05:21:46;;;;;;;7.25;4.65;;;;;;;21.88;76.50;97388.78;5053579;28;20389;-74
2021/07/13 05:24:11;;;;;;;6.05;4.28;;;;;;;22.19;74.60;97388.31;5053648;28;20108;-86
2021/07/13 05:26:36;;;;;;;10.57;4.80;;;;;;;22.10;74.50;97390.63;5036174;28;20463;-75
2021/07/13 05:29:05;;;;;;;7.20;5.25;;;;;;;22.22;74.61;97393.09;5057652;28;20058;-76
2021/07/13 05:31:33;;;;;;;17.45;5.53;;;;;;;21.94;75.70;97390.06;5073706;28;20028;-75
2021/07/13 05:33:58;;;;;;;13.75;5.70;;;;;;;22.12;74.98;97398.59;5061151;28;20080;-71
2021/07/13 05:36:25;;;;;;;9.55;6.82;;;;;;;21.95;74.86;97397.25;5054202;28;20116;-75
2021/07/13 05:38:50;;;;;;;10.65;6.30;;;;;;;21.80;75.37;97401.06;5048783;28;20378;-74
2021/07/13 05:41:16;;;;;;;10.73;6.25;;;;;;;21.75;76.07;97401.38;5050026;28;20032;-75
2021/07/13 05:43:42;;;;;;;9.20;6.05;;;;;;;21.88;74.98;97394.34;5050199;28;20028;-75
2021/07/13 05:46:07;;;;;;;6.50;5.80;;;;;;;22.47;73.08;97400.88;5060690;28;20027;-78
2021/07/13 05:48:33;;;;;;;16.15;6.00;;;;;;;22.62;72.00;97391.41;5070268;28;20495;-75
2021/07/13 05:50:58;;;;;;;6.85;5.93;;;;;;;22.49;72.30;97395.72;5070255;28;20103;-74
2021/07/13 05:53:24;;;;;;;8.65;5.80;;;;;;;22.68;72.05;97404.63;5070204;28;20552;-79
2021/07/13 05:55:50;;;;;;;8.68;5.50;;;;;;;22.81;71.15;97407.91;5070604;28;20021;-75
2021/07/13 05:58:19;;;;;;;9.30;4.72;;;;;;;23.02;70.42;97416.44;5070323;28;20439;-76
2021/07/13 06:00:46;;;;;;;6.97;5.65;;;;;;;23.06;70.03;97420.00;5070187;28;20020;-74
2021/07/13 06:03:11;;;;;;;9.27;4.82;;;;;;;22.65;71.81;97415.72;5070196;28;20488;-76
2021/07/13 06:05:36;;;;;;;6.38;5.07;;;;;;;23.07;69.99;97410.47;5052898;28;20040;-73
2021/07/13 06:08:02;;;;;;;4.85;4.10;;;;;;;23.14;69.43;97413.31;5070054;28;20095;-73
2021/07/13 06:10:27;;;;;;;5.75;4.57;;;;;;;23.39;68.54;97405.88;5068986;28;20055;-74
2021/07/13 06:12:53;;;;;;;8.05;4.68;;;;;;;23.38;68.38;97420.97;5068888;28;20535;-73
2021/07/13 06:15:19;;;;;;;7.60;5.20;;;;;;;23.73;67.03;97417.56;5054379;28;20032;-73
2021/07/13 06:17:44;;;;;;;6.43;4.78;;;;;;;23.31;68.48;97426.53;5049931;28;20067;-74
2021/07/13 06:20:11;;;;;;;7.13;5.10;;;;;;;23.09;69.01;97438.78;5031682;28;20065;-73
2021/07/13 06:22:36;;;;;;;9.52;4.78;;;;;;;23.67;67.68;97426.72;5060181;28;20392;-73
2021/07/13 06:25:02;;;;;;;9.20;5.63;;;;;;;24.03;65.85;97428.38;5070006;28;20024;-73
2021/07/13 06:27:28;;;;;;;6.72;4.20;;;;;;;24.03;65.69;97425.59;5069748;28;20063;-74
2021/07/13 06:29:53;;;;;;;10.80;4.75;;;;;;;23.80;66.24;97430.75;5069421;28;20136;-73
2021/07/13 06:32:18;;;;;;;5.68;4.63;;;;;;;23.85;66.28;97435.94;5069763;28;20021;-74
2021/07/13 06:34:44;;;;;;;6.13;4.32;;;;;;;24.31;64.54;97436.03;5070102;28;20034;-74
2021/07/13 06:37:10;;;;;;;8.90;4.53;;;;;;;24.32;63.76;97438.44;5070100;28;20397;-73
2021/07/13 06:39:35;;;;;;;9.48;4.82;;;;;;;24.13;64.72;97433.25;5069967;28;20028;-74
2021/07/13 06:42:00;;;;;;;8.88;5.15;;;;;;;23.64;66.23;97433.09;5072304;28;20032;-73
2021/07/13 06:44:27;;;;;;;6.80;4.70;;;;;;;23.66;66.53;97433.47;5073381;28;20032;-73
2021/07/13 06:46:52;;;;;;;5.85;4.25;;;;;;;23.96;65.28;97431.19;5073433;28;20024;-73
2021/07/13 06:49:17;;;;;;;11.10;4.75;;;;;;;24.31;64.13;97434.06;5073289;28;20530;-73
2021/07/13 06:51:43;;;;;;;7.72;4.63;;;;;;;24.14;64.69;97439.63;5073169;28;20505;-73
2021/07/13 06:54:09;;;;;;;6.43;4.50;;;;;;;24.76;62.57;97442.84;5073591;28;20039;-74
2021/07/13 06:56:34;;;;;;;6.78;4.32;;;;;;;24.95;61.43;97454.47;5073477;28;20036;-73
2021/07/13 06:59:00;;;;;;;7.57;4.25;;;;;;;25.16;61.12;97450.00;5072990;28;20029;-74
2021/07/13 07:01:25;;;;;;;7.55;4.53;;;;;;;24.97;61.17;97451.25;5072981;28;20052;-76
2021/07/13 07:03:50;;;;;;;6.28;4.32;;;;;;;24.92;61.60;97451.66;5072851;28;20028;-73
2021/07/13 07:06:16;;;;;;;8.48;5.25;;;;;;;25.12;60.84;97441.63;5072814;28;20111;-76
2021/07/13 07:08:41;;;;;;;6.05;4.18;;;;;;;25.62;59.23;97438.69;5072666;28;20016;-75
2021/07/13 07:11:07;;;;;;;7.55;5.03;;;;;;;25.45;60.58;97446.72;5073172;28;20448;-75
2021/07/13 07:13:32;;;;;;;6.40;4.80;;;;;;;25.38;60.79;97432.75;5053465;28;20051;-74
2021/07/13 07:15:58;;;;;;;6.88;4.35;;;;;;;25.63;60.22;97440.28;5072992;28;20056;-74
2021/07/13 07:18:23;;;;;;;7.68;5.03;;;;;;;25.47;60.52;97427.50;5073293;28;20024;-74
2021/07/13 07:20:49;;;;;;;8.00;4.55;;;;;;;25.24;62.06;97429.19;5072912;28;20009;-82
2021/07/13 07:23:14;;;;;;;14.20;4.78;;;;;;;25.47;60.67;97432.31;5072887;28;20028;-75
2021/07/13 07:25:39;;;;;;;11.85;4.47;;;;;;;25.83;59.96;97428.19;5073303;28;20040;-75
2021/07/13 07:28:05;;;;;;;6.07;3.90;;;;;;;26.35;57.82;97431.88;5073357;28;20074;-74
2021/07/13 07:30:31;;;;;;;5.88;4.15;;;;;;;26.35;57.55;97419.84;5090507;28;20048;-73
2021/07/13 07:33:01;;;;;;;9.55;4.20;;;;;;;26.45;57.70;97424.59;5093709;28;20028;-76
2021/07/13 07:35:29;;;;;;;4.30;3.90;;;;;;;26.44;57.65;97415.38;5093438;28;20024;-76
2021/07/13 07:37:54;;;;;;;6.38;4.55;;;;;;;25.84;59.61;97409.38;5093467;28;20027;-76
2021/07/13 07:40:21;;;;;;;6.10;3.88;;;;;;;25.87;59.16;97405.75;5067817;28;20688;-78
2021/07/13 07:42:50;;;;;;;5.22;4.65;;;;;;;26.19;58.23;97400.72;5060756;28;20033;-80
2021/07/13 07:45:16;;;;;;;11.05;4.70;;;;;;;26.82;56.30;97404.25;5063004;28;20036;-77
2021/07/13 07:47:42;;;;;;;9.88;4.28;;;;;;;26.43;56.81;97388.53;5061907;28;20125;-78
2021/07/13 07:50:08;;;;;;;7.00;5.40;;;;;;;26.64;56.13;97393.16;5060291;28;20485;-78
2021/07/13 07:52:34;;;;;;;8.15;3.92;;;;;;;26.41;57.60;97385.34;5063670;28;20512;-77
2021/07/13 07:55:00;;;;;;;4.43;3.85;;;;;;;26.46;56.60;97365.25;5062467;28;20021;-77
2021/07/13 07:57:25;;;;;;;8.55;5.05;;;;;;;26.75;55.63;97360.16;5067612;28;20721;-75
2021/07/13 07:59:51;;;;;;;8.13;4.35;;;;;;;26.49;56.24;97350.41;5060414;28;20017;-79
2021/07/13 08:02:16;;;;;;;9.45;4.57;;;;;;;26.82;54.51;97354.50;5061970;28;20512;-77
2021/07/13 08:04:42;;;;;;;9.48;4.25;;;;;;;26.98;54.71;97363.16;5043498;28;20080;-75
2021/07/13 08:07:08;;;;;;;7.53;4.28;;;;;;;27.41;52.51;97377.50;5059853;28;20107;-79
2021/07/13 08:09:34;;;;;;;5.95;3.70;;;;;;;27.25;52.96;97359.66;5069706;28;20025;-79
2021/07/13 08:12:01;;;;;;;8.52;3.50;;;;;;;27.85;52.37;97353.28;5059591;28;20111;-76
2021/07/13 08:14:26;;;;;;;9.80;3.25;;;;;;;28.29;50.05;97367.06;5050948;28;20071;-78
2021/07/13 08:16:53;;;;;;;5.18;3.53;;;;;;;27.91;51.00;97374.06;5051227;28;20020;-77
2021/07/13 08:19:19;;;;;;;8.65;3.88;;;;;;;27.75;51.39;97390.75;5042266;28;20040;-78
2021/07/13 08:21:44;;;;;;;8.10;4.13;;;;;;;28.48;49.48;97397.28;5080254;28;20021;-76
2021/07/13 08:24:11;;;;;;;5.50;3.83;;;;;;;28.74;48.70;97406.94;5067561;28;20065;-81
2021/07/13 08:26:37;;;;;;;4.75;3.55;;;;;;;28.58;48.70;97390.69;5059305;28;20053;-79
2021/07/13 08:29:02;;;;;;;5.85;3.28;;;;;;;28.60;49.14;97393.88;5057789;28;20068;-78
2021/07/13 08:31:28;;;;;;;4.10;3.67;;;;;;;28.91;47.83;97396.59;5046472;28;20115;-73
2021/07/13 08:33:53;;;;;;;8.77;3.63;;;;;;;29.25;47.46;97383.09;5064971;28;20016;-78
2021/07/13 08:36:19;;;;;;;8.75;3.65;;;;;;;29.18;46.68;97391.66;5039476;28;20423;-75
2021/07/13 08:38:44;;;;;;;4.13;3.35;;;;;;;28.97;47.67;97395.69;5058173;28;20413;-74
2021/07/13 08:41:10;;;;;;;4.65;3.50;;;;;;;28.91;48.10;97385.34;5066018;28;20008;-77
2021/07/13 08:43:39;;;;;;;7.43;2.80;;;;;;;29.19;47.48;97385.59;5060265;28;20114;-75
2021/07/13 08:46:05;;;;;;;4.63;2.97;;;;;;;29.46;46.33;97377.03;5051281;28;20017;-74
2021/07/13 08:48:32;;;;;;;5.45;2.78;;;;;;;30.25;45.30;97365.59;5062404;28;20021;-76
2021/07/13 08:51:00;;;;;;;3.63;2.78;;;;;;;30.56;43.43;97364.03;5067871;28;20782;-77
2021/07/13 08:53:26;;;;;;;4.03;2.40;;;;;;;30.58;42.87;97361.56;5047929;28;20580;-78
2021/07/13 08:55:55;;;;;;;3.97;2.42;;;;;;;30.06;43.14;97346.72;5054894;28;20021;-75
2021/07/13 08:58:23;;;;;;;4.30;2.70;;;;;;;29.46;43.84;97348.81;5051774;28;20166;-76
2021/07/13 09:00:49;;;;;;;3.47;2.90;;;;;;;29.75;43.20;97363.09;5057177;28;20078;-75
2021/07/13 09:03:20;;;;;;;6.15;2.72;;;;;;;30.13;42.68;97375.56;5059966;28;20024;-75
2021/07/13 09:05:47;;;;;;;2.58;2.20;;;;;;;30.68;41.41;97376.66;5060031;28;20095;-73
2021/07/13 09:08:22;;;;;;;5.25;2.20;;;;;;;30.42;40.50;97364.38;5065290;28;20086;-77
2021/07/13 09:11:13;;;;;;;4.40;3.13;;;;;;;29.67;43.40;97370.91;5068468;28;20031;-74
2021/07/13 09:13:46;;;;;;;7.25;2.92;;;;;;;30.20;42.20;97383.03;5054063;28;20028;-75
2021/07/13 09:16:15;;;;;;;4.32;2.47;;;;;;;30.43;41.94;97388.56;5067073;28;20016;-75
2021/07/13 09:18:43;;;;;;;4.40;2.55;;;;;;;30.30;42.18;97384.81;5067250;28;20036;-76
2021/07/13 09:21:13;;;;;;;3.47;2.38;;;;;;;30.80;41.28;97395.72;5064757;28;20033;-76
2021/07/13 09:24:21;;;;;;;4.93;2.60;;;;;;;31.16;40.97;97392.78;5067352;28;20020;-74
2021/07/13 09:26:55;;;;;;;5.05;2.35;;;;;;;31.13;41.21;97405.75;5059115;28;20024;-76
2021/07/13 09:29:26;;;;;;;3.03;2.33;;;;;;;30.98;40.13;97400.94;5061289;28;20576;-77
2021/07/13 09:31:53;;;;;;;3.25;2.47;;;;;;;29.98;41.70;97379.94;5063923;28;20555;-74
2021/07/13 09:34:19;;;;;;;3.53;2.65;;;;;;;29.87;41.87;97396.31;5050681;28;20132;-74
2021/07/13 09:36:52;;;;;;;3.15;2.20;;;;;;;29.70;42.16;97386.97;5049876;28;20032;-75
2021/07/13 09:39:25;;;;;;;3.85;3.30;;;;;;;30.08;41.66;97369.63;5057392;28;20028;-74
2021/07/13 09:41:52;;;;;;;5.35;2.92;;;;;;;29.59;42.87;97361.03;5069964;28;20040;-75
2021/07/13 09:44:22;;;;;;;4.55;2.70;;;;;;;29.83;42.86;97338.38;5080982;28;20619;-75
2021/07/13 09:46:48;;;;;;;7.90;3.60;;;;;;;29.62;42.60;97331.97;5068718;28;20025;-74
2021/07/13 09:49:21;;;;;;;7.03;3.00;;;;;;;30.30;42.18;97334.00;5071368;28;20035;-74
2021/07/13 09:51:54;;;;;;;4.43;2.15;;;;;;;30.80;40.82;97337.16;5072102;28;20550;-74
2021/07/13 09:54:33;;;;;;;7.05;3.00;;;;;;;30.94;39.18;97329.56;5074806;28;20115;-77
2021/07/13 09:57:01;;;;;;;5.38;3.05;;;;;;;29.44;41.42;97317.47;5073178;28;20056;-75
2021/07/13 09:59:27;;;;;;;5.20;3.10;;;;;;;29.44;41.97;97303.38;5073993;28;20021;-78
2021/07/13 10:01:52;;;;;;;5.47;2.35;;;;;;;29.73;41.27;97307.13;5070245;28;20126;-77
2021/07/13 10:04:18;;;;;;;2.60;2.30;;;;;;;30.27;40.33;97293.34;5070179;28;20029;-77
2021/07/13 10:06:45;;;;;;;4.78;2.40;;;;;;;29.84;41.25;97294.84;5070455;28;20443;-75
2021/07/13 10:09:11;;;;;;;4.70;2.72;;;;;;;30.18;40.20;97289.56;5070648;28;20035;-76
2021/07/13 10:11:42;;;;;;;3.42;2.63;;;;;;;30.71;39.17;97305.94;5069783;28;20025;-77
2021/07/13 10:14:10;;;;;;;6.53;2.75;;;;;;;30.99;38.86;97327.00;5068567;28;20078;-76
2021/07/13 10:16:37;;;;;;;2.55;2.20;;;;;;;31.16;37.36;97322.09;5072099;28;20020;-77
2021/07/13 10:19:08;;;;;;;4.50;2.40;;;;;;;31.25;37.61;97308.91;5074095;28;20024;-75
2021/07/13 10:21:35;;;;;;;4.80;3.20;;;;;;;31.32;37.31;97313.56;5073588;28;20039;-76
2021/07/13 10:24:02;;;;;;;3.40;2.67;;;;;;;31.46;37.02;97317.97;5073804;28;20024;-74
2021/07/13 10:26:43;;;;;;;4.05;2.80;;;;;;;31.14;37.67;97314.06;5074075;28;20026;-75
2021/07/13 10:29:33;;;;;;;6.53;3.35;;;;;;;30.40;39.28;97299.09;5073427;28;20098;-77
2021/07/13 10:32:00;;;;;;;6.40;2.58;;;;;;;30.48;39.40;97294.84;5073385;28;20125;-77
2021/07/13 10:34:53;;;;;;;3.75;2.55;;;;;;;30.58;39.20;97282.47;5071759;28;20365;-77
2021/07/13 10:37:29;;;;;;;5.82;2.72;;;;;;;30.69;39.42;97268.88;5073634;28;20496;-78
2021/07/13 10:39:57;;;;;;;3.10;2.10;;;;;;;30.65;38.97;97256.09;5076441;28;20031;-77
2021/07/13 10:42:47;;;;;;;4.43;2.70;;;;;;;30.65;38.78;97262.53;5049462;28;20044;-76
2021/07/13 10:45:18;;;;;;;7.28;2.70;;;;;;;30.65;38.98;97273.03;5063345;28;20037;-77
2021/07/13 10:48:02;;;;;;;2.50;2.30;;;;;;;30.63;37.81;97292.47;5073308;28;20024;-75
2021/07/13 10:50:27;;;;;;;2.80;2.20;;;;;;;30.49;38.23;97296.44;5073161;28;20029;-80
2021/07/13 10:52:54;;;;;;;5.90;2.20;;;;;;;30.41;37.97;97312.00;5073388;28;20042;-74
2021/07/13 10:55:32;;;;;;;3.38;1.77;;;;;;;30.87;38.05;97315.63;5073516;28;20075;-78
2021/07/13 10:58:09;;;;;;;4.68;2.35;;;;;;;30.99;37.27;97317.72;5073372;28;20020;-76
2021/07/13 11:00:47;;;;;;;5.13;1.90;;;;;;;30.74;37.48;97319.19;5073079;28;20388;-77
2021/07/13 11:03:30;;;;;;;3.55;2.55;;;;;;;30.78;37.41;97311.41;5073337;28;20116;-76
2021/07/13 11:06:07;;;;;;;5.88;3.00;;;;;;;31.29;36.66;97308.78;5073312;28;20104;-77
2021/07/13 11:08:52;;;;;;;3.75;2.47;;;;;;;31.04;36.63;97314.38;5073032;28;20119;-77
2021/07/13 11:11:20;;;;;;;4.07;2.80;;;;;;;30.93;36.46;97314.63;5054914;28;20029;-78
2021/07/13 11:13:55;;;;;;;4.57;2.55;;;;;;;30.99;36.92;97297.94;5054444;28;20021;-77
2021/07/13 11:16:24;;;;;;;6.07;2.45;;;;;;;30.95;36.44;97286.72;5055629;28;20057;-77
2021/07/13 11:18:50;;;;;;;3.72;2.20;;;;;;;31.46;35.65;97279.19;5052738;28;20738;-78
2021/07/13 11:21:16;;;;;;;8.63;2.70;;;;;;;32.19;35.10;97269.63;5053345;28;20138;-77
2021/07/13 11:23:43;;;;;;;3.45;2.53;;;;;;;32.58;35.24;97267.53;5072028;28;20089;-78
2021/07/13 11:26:10;;;;;;;4.13;2.95;;;;;;;32.40;35.35;97259.59;5073548;28;20500;-79
2021/07/13 11:28:37;;;;;;;2.95;2.65;;;;;;;30.83;36.91;97252.75;5072477;28;20037;-77
2021/07/13 11:31:04;;;;;;;5.28;2.33;;;;;;;30.94;37.27;97254.06;5059312;28;20059;-77
2021/07/13 11:33:30;;;;;;;5.20;2.50;;;;;;;31.60;36.55;97253.31;5052802;28;20512;-76
2021/07/13 11:35:59;;;;;;;6.00;2.30;;;;;;;32.10;36.33;97260.22;5071446;28;20048;-77